UNBBUNNT

Guest
Details From UNBB - BARNAUL
To UNNT - Novosibirsk Tolmachevo
Flight Number -
Tags generated
Created
Modified
Stats Distance 104 nm / 192 km
Max Altitude 0 ft / 0 m
Waypoints 2
Social Downloads 3
Likes 0
Share VATSIM

Download

Looking for another format? Having issues loading an existing format? Contact us
Advertisement - Login to hide

Notes

Basic altitude profile: - Ascent Rate: 2500ft/min - Ascent Speed: 250kts - Cruise Altitude: 35000ft - Cruise Speed: 420kts - Descent Rate: 1500ft/min - Descent Speed: 250kts

Route

UNBB UNNT

ID Type Via Altitude Latitude Longitude Leg Dist Tot Dist Heading (true) Name
O UNBB APT - 0 ft / 0 m 53.36377˚ 83.53853˚ - 0 nm - BARNAUL
O UNNT APT - 0 ft / 0 m 55.01302˚ 82.65107˚ 103 nm 103 nm 343° / 342° Novosibirsk Tolmachevo

Altitude Profile

Advertisement - Login to hide

UNBB

Details ICAO UNBB (BAX)
Name BARNAUL
Region Russia
Timezone Asia/Omsk (UTC+6.0)
Stats Elevation 838 ft / 255 m (AMSL)
Location 53.363774° 83.538533°
Runways 1
Magnetic Variation 7.618° E

METAR

UNBB 110000Z 16003MPS CAVOK M08/M11 Q1027 R24/420548 NOSIG RMK QFE748

Decode

TAF

TAF UNBB 102300Z 1100/1124 16005G10MPS 9999 BKN020CB TEMPO 1106/1124 21007G13MPS 1200 SHSN DRSN SCT002 BKN011CB

Decode

Departure Runways

ID Width Length Bearing (true) Bearing (mag) Surface Threshold Offset Overrun Length
06 164 ft / 50 m 9,340 ft / 2,847 m 67.18° 59.56° Concrete 1,148 ft / 350 m 160 ft / 49 m
24 164 ft / 50 m 9,340 ft / 2,847 m 247.21° 239.59° Concrete 0 ft / 0 m 160 ft / 49 m

UNNT

Details ICAO UNNT (OVB)
Name Novosibirsk Tolmachevo
Region Russia
Timezone Asia/Novosibirsk (UTC+7.0)
Stats Elevation 365 ft / 111 m (AMSL)
Location 55.013017° 82.651065°
Runways 2
Magnetic Variation 8.864° E

METAR

UNNT 110000Z 16005MPS CAVOK M08/M11 Q1026 R25/490150 R34/490150 NOSIG RMK QFE759/1013

Decode

TAF

TAF UNNT 102300Z 1100/1124 18006G12MPS 9999 DRSN BKN030 BECMG 1102/1104 14003G08MPS TEMPO 1115/1124 3100 -SHSN BKN011CB

Decode

Destination Runways

ID Width Length Bearing (true) Bearing (mag) Surface Threshold Offset Overrun Length
07 190 ft / 58 m 11,817 ft / 3,602 m 81.00° 72.14° Asphalt 0 ft / 0 m 250 ft / 76 m
07L 304 ft / 93 m 9,877 ft / 3,011 m 81.01° 72.15° Grass 0 ft / 0 m 0 ft / 0 m
25 190 ft / 58 m 11,817 ft / 3,602 m 261.04° 252.18° Asphalt 0 ft / 0 m 225 ft / 69 m
25R 304 ft / 93 m 9,877 ft / 3,011 m 261.05° 252.19° Grass 0 ft / 0 m 0 ft / 0 m

Approach Navaids

Runway Type Ident Frequency Range Bearing (true) Bearing (mag) Slope Elevation
07 Localiser IRO 110.10 MHz 18 nm / 33 km 81.06° 72.19° - 335 ft / 102 m (AMSL)
07 Glidescope IRO 110.10 MHz 10 nm / 19 km 81.02° 72.16° 2.83° 345 ft / 105 m (AMSL)
25 Localiser IKT 108.50 MHz 18 nm / 33 km 261.00° 252.13° - 345 ft / 105 m (AMSL)
25 Glidescope IKT 108.50 MHz 10 nm / 19 km 261.02° 252.16° 2.67° 350 ft / 107 m (AMSL)

Popular Alternatives